createdAt,value
2023-05-12T00:00:15.574Z,42.19
2023-05-12T00:03:08.858Z,42.14
2023-05-12T00:05:41.189Z,42.04
2023-05-12T00:08:13.679Z,42.50
2023-05-12T00:10:46.366Z,42.31
2023-05-12T00:13:18.844Z,42.49
2023-05-12T00:15:51.475Z,42.44
2023-05-12T00:18:23.928Z,42.56
2023-05-12T00:20:56.525Z,42.51
2023-05-12T00:23:29.032Z,42.88
2023-05-12T00:26:01.708Z,42.79
2023-05-12T00:28:36.623Z,42.86
2023-05-12T00:31:09.565Z,42.90
2023-05-12T00:33:42.209Z,42.73
2023-05-12T00:36:14.741Z,42.67
2023-05-12T00:38:47.179Z,42.90
2023-05-12T00:41:19.873Z,43.08
2023-05-12T00:43:52.595Z,43.30
2023-05-12T00:46:25.090Z,43.38
2023-05-12T00:48:57.510Z,43.15
2023-05-12T00:51:31.149Z,43.43
2023-05-12T00:54:03.929Z,43.54
2023-05-12T00:56:39.550Z,43.27
2023-05-12T00:59:13.776Z,43.98
2023-05-12T01:01:47.933Z,43.49
2023-05-12T01:04:21.161Z,43.61
2023-05-12T01:06:59.519Z,43.67
2023-05-12T01:09:31.772Z,43.56
2023-05-12T01:12:04.856Z,43.71
2023-05-12T01:14:40.102Z,43.89
2023-05-12T01:17:15.366Z,43.78
2023-05-12T01:19:51.524Z,43.59
2023-05-12T01:22:26.097Z,43.79
2023-05-12T01:25:01.292Z,43.99
2023-05-12T01:27:40.609Z,43.93
2023-05-12T01:30:19.159Z,44.01
2023-05-12T01:32:52.396Z,44.33
2023-05-12T01:35:25.310Z,44.23
2023-05-12T01:38:05.404Z,44.46
2023-05-12T01:40:41.457Z,44.32
2023-05-12T01:43:16.501Z,44.45
2023-05-12T01:45:49.187Z,44.31
2023-05-12T01:48:21.405Z,44.25
2023-05-12T01:50:54.722Z,44.44
2023-05-12T01:53:27.146Z,44.51
2023-05-12T01:55:59.650Z,44.69
2023-05-12T01:58:32.761Z,44.53
2023-05-12T02:01:06.845Z,44.25
2023-05-12T02:03:40.039Z,44.84
2023-05-12T02:06:17.199Z,44.37
2023-05-12T02:08:50.027Z,44.79
2023-05-12T02:11:23.016Z,44.98
2023-05-12T02:13:55.200Z,45.08
2023-05-12T02:16:29.474Z,45.09
2023-05-12T02:19:01.870Z,45.12
2023-05-12T02:21:35.051Z,45.36
2023-05-12T02:24:09.295Z,45.17
2023-05-12T02:26:41.723Z,45.49
2023-05-12T02:29:14.672Z,45.58
2023-05-12T02:31:47.107Z,45.35
2023-05-12T02:34:21.555Z,45.54
2023-05-12T02:36:54.391Z,45.60
2023-05-12T02:39:26.674Z,45.91
2023-05-12T02:41:58.924Z,45.77
2023-05-12T02:44:33.721Z,45.89
2023-05-12T02:47:07.172Z,45.83
2023-05-12T02:49:41.944Z,45.83
2023-05-12T02:52:14.699Z,45.90
2023-05-12T02:54:46.939Z,46.05
2023-05-12T02:57:19.166Z,46.45
2023-05-12T02:59:51.444Z,46.25
2023-05-12T03:02:23.949Z,46.28
2023-05-12T03:04:56.554Z,46.17
2023-05-12T03:07:29.422Z,46.69
2023-05-12T03:10:02.957Z,46.43
2023-05-12T03:12:37.364Z,46.54
2023-05-12T03:15:13.909Z,46.64
2023-05-12T03:17:46.464Z,46.33
2023-05-12T03:20:19.977Z,46.26
2023-05-12T03:22:53.279Z,46.80
2023-05-12T03:25:25.873Z,46.75
2023-05-12T03:27:59.360Z,46.70
2023-05-12T03:30:33.242Z,46.42
2023-05-12T03:33:05.589Z,47.06
2023-05-12T03:35:43.812Z,46.67
2023-05-12T03:38:16.584Z,46.83
2023-05-12T03:40:52.928Z,46.93
2023-05-12T03:43:26.097Z,47.32
2023-05-12T03:46:02.121Z,47.10
2023-05-12T03:48:38.483Z,47.35
2023-05-12T03:51:12.433Z,46.98
2023-05-12T03:53:46.455Z,46.84
2023-05-12T03:56:18.811Z,47.08
2023-05-12T03:58:51.240Z,46.93
2023-05-12T04:01:23.579Z,46.91
2023-05-12T04:03:56.003Z,46.87
2023-05-12T04:06:28.430Z,46.82
2023-05-12T04:09:01.533Z,46.73
2023-05-12T04:11:35.638Z,46.30
2023-05-12T04:14:08.714Z,45.73
2023-05-12T04:16:42.560Z,44.35
2023-05-12T04:19:15.101Z,43.69
2023-05-12T04:21:48.042Z,43.34
2023-05-12T04:24:20.476Z,41.52
2023-05-12T04:26:52.779Z,40.87
2023-05-12T04:29:25.707Z,40.02
2023-05-12T04:32:00.308Z,38.95
2023-05-12T04:34:32.719Z,38.25
2023-05-12T04:37:05.095Z,37.89
2023-05-12T04:39:38.268Z,37.72
2023-05-12T04:42:11.025Z,36.80
2023-05-12T04:44:46.296Z,36.69
2023-05-12T04:47:19.326Z,36.24
2023-05-12T04:49:52.016Z,35.30
2023-05-12T04:52:25.984Z,34.27
2023-05-12T04:54:58.894Z,33.39
2023-05-12T04:57:31.617Z,33.20
2023-05-12T05:00:06.317Z,32.01
2023-05-12T05:02:40.510Z,31.23
2023-05-12T05:05:13.261Z,30.03
2023-05-12T05:07:45.664Z,29.31
2023-05-12T05:10:18.845Z,28.94
2023-05-12T05:12:51.366Z,28.32
2023-05-12T05:15:26.403Z,27.31
2023-05-12T05:18:02.187Z,26.74
2023-05-12T05:20:40.715Z,26.01
2023-05-12T05:23:15.895Z,25.88
2023-05-12T05:25:48.477Z,25.29
2023-05-12T05:28:20.833Z,24.97
2023-05-12T05:30:53.797Z,24.57
2023-05-12T05:33:26.224Z,24.95
2023-05-12T05:35:58.631Z,25.43
2023-05-12T05:38:30.902Z,24.88
2023-05-12T05:41:03.868Z,25.09
2023-05-12T05:43:40.756Z,24.67
2023-05-12T05:46:12.450Z,24.27
2023-05-12T05:48:45.223Z,24.01
2023-05-12T05:51:17.621Z,23.39
2023-05-12T05:53:52.879Z,23.41
2023-05-12T05:56:25.312Z,23.09
2023-05-12T05:59:02.705Z,22.89
2023-05-12T06:01:39.780Z,22.68
2023-05-12T06:04:12.335Z,21.99
2023-05-12T06:06:45.481Z,22.16
2023-05-12T06:09:17.842Z,22.23
2023-05-12T06:11:50.567Z,22.08
2023-05-12T06:14:22.893Z,22.11
2023-05-12T06:16:55.351Z,22.35
2023-05-12T06:19:29.580Z,22.26
2023-05-12T06:22:00.946Z,22.62
2023-05-12T06:24:33.127Z,23.10
2023-05-12T06:27:05.404Z,24.18
2023-05-12T06:29:38.327Z,24.88
2023-05-12T06:32:11.995Z,25.19
2023-05-12T06:34:44.264Z,25.98
2023-05-12T06:37:16.776Z,25.99
2023-05-12T06:39:48.979Z,26.51
2023-05-12T06:42:21.997Z,27.42
2023-05-12T06:44:57.101Z,27.73
2023-05-12T06:47:30.096Z,27.93
2023-05-12T06:50:02.987Z,28.19
2023-05-12T06:52:36.852Z,28.80
2023-05-12T06:55:09.983Z,28.63
2023-05-12T06:57:43.083Z,28.72
2023-05-12T07:00:19.737Z,29.15
2023-05-12T07:02:52.226Z,29.56
2023-05-12T07:05:25.266Z,29.42
2023-05-12T07:07:58.044Z,29.18
2023-05-12T07:10:30.277Z,28.92
2023-05-12T07:13:02.588Z,29.17
2023-05-12T07:15:35.074Z,29.70
2023-05-12T07:18:09.452Z,29.88
2023-05-12T07:20:41.825Z,30.00
2023-05-12T07:23:14.534Z,29.88
2023-05-12T07:25:46.857Z,30.05
2023-05-12T07:28:22.259Z,30.35
2023-05-12T07:30:54.545Z,30.45
2023-05-12T07:33:26.931Z,30.76
2023-05-12T07:35:59.129Z,30.66
2023-05-12T07:38:32.117Z,30.62
2023-05-12T07:41:05.344Z,31.04
2023-05-12T07:43:40.371Z,31.27
2023-05-12T07:46:13.766Z,31.27
2023-05-12T07:48:46.199Z,31.22
2023-05-12T07:51:18.585Z,31.42
2023-05-12T07:53:50.962Z,31.66
2023-05-12T07:56:23.321Z,31.79
2023-05-12T07:58:56.568Z,31.66
2023-05-12T08:01:28.860Z,31.65
2023-05-12T08:04:01.432Z,31.49
2023-05-12T08:06:34.036Z,31.29
2023-05-12T08:09:07.105Z,31.67
2023-05-12T08:11:45.447Z,31.22
2023-05-12T08:14:19.153Z,30.92
2023-05-12T08:16:51.491Z,30.65
2023-05-12T08:19:24.137Z,30.32
2023-05-12T08:21:56.468Z,30.61
2023-05-12T08:24:29.064Z,30.43
2023-05-12T08:27:01.464Z,30.30
2023-05-12T08:29:34.094Z,29.97
2023-05-12T08:32:07.369Z,29.67
2023-05-12T08:34:42.609Z,29.35
2023-05-12T08:37:14.968Z,29.67
2023-05-12T08:39:47.385Z,29.69
2023-05-12T08:42:32.043Z,29.61
2023-05-12T08:45:06.756Z,29.61
2023-05-12T08:47:41.880Z,29.54
2023-05-12T08:50:18.619Z,29.80
2023-05-12T08:52:51.994Z,29.51
2023-05-12T08:55:29.592Z,28.97
2023-05-12T08:58:05.485Z,29.48
2023-05-12T09:00:40.583Z,28.89
2023-05-12T09:03:15.872Z,28.59
2023-05-12T09:05:48.876Z,27.53
2023-05-12T09:08:21.431Z,27.42
2023-05-12T09:10:56.305Z,27.24
2023-05-12T09:13:37.804Z,27.10
2023-05-12T09:16:13.535Z,27.23
2023-05-12T09:18:52.252Z,26.80
2023-05-12T09:21:25.040Z,26.85
2023-05-12T09:24:00.052Z,26.25
2023-05-12T09:26:37.122Z,26.35
2023-05-12T09:29:15.801Z,26.04
2023-05-12T09:31:54.638Z,26.17
2023-05-12T09:34:32.245Z,26.00
2023-05-12T09:37:06.832Z,25.88
2023-05-12T09:39:39.781Z,25.52
2023-05-12T09:42:16.295Z,25.58
2023-05-12T09:44:49.899Z,25.45
2023-05-12T09:47:22.278Z,25.30
2023-05-12T09:49:57.820Z,25.63
2023-05-12T09:52:30.359Z,25.43
2023-05-12T09:55:10.902Z,25.58
2023-05-12T09:57:44.886Z,24.92
2023-05-12T10:00:34.596Z,24.80
2023-05-12T10:03:13.069Z,25.04
2023-05-12T10:05:51.873Z,24.54
2023-05-12T10:08:28.684Z,24.56
2023-05-12T10:11:03.588Z,24.66
2023-05-12T10:13:37.196Z,24.15
2023-05-12T10:16:14.160Z,24.09
2023-05-12T10:18:48.010Z,24.27
2023-05-12T10:21:23.016Z,23.85
2023-05-12T10:23:57.997Z,24.15
2023-05-12T10:26:31.036Z,23.99
2023-05-12T10:29:03.813Z,24.49
2023-05-12T10:31:40.049Z,23.91
2023-05-12T10:34:19.996Z,23.44
2023-05-12T10:36:54.398Z,23.62
2023-05-12T10:39:33.136Z,23.41
2023-05-12T10:42:09.763Z,23.50
2023-05-12T10:44:54.087Z,23.60
2023-05-12T10:47:41.743Z,23.55
2023-05-12T10:50:15.275Z,23.35
2023-05-12T10:52:57.698Z,23.26
2023-05-12T10:55:40.013Z,23.37
2023-05-12T10:58:14.773Z,23.33
2023-05-12T11:00:51.798Z,22.81
2023-05-12T11:03:28.734Z,23.04
2023-05-12T11:08:55.398Z,23.03
2023-05-12T11:11:29.836Z,22.91
2023-05-12T11:14:03.389Z,22.59
2023-05-12T11:16:38.049Z,23.17
2023-05-12T11:19:10.873Z,23.36
2023-05-12T11:21:43.821Z,22.73
2023-05-12T11:24:16.798Z,23.09
2023-05-12T11:26:52.012Z,23.52
2023-05-12T11:29:24.427Z,22.82
2023-05-12T11:31:57.455Z,22.67
2023-05-12T11:34:30.334Z,22.56
2023-05-12T11:37:02.748Z,22.88
2023-05-12T11:39:35.411Z,23.00
2023-05-12T11:42:13.236Z,23.31
2023-05-12T11:44:51.505Z,22.49
2023-05-12T11:47:23.740Z,22.17
2023-05-12T11:49:56.749Z,22.60
2023-05-12T11:52:30.107Z,22.72
2023-05-12T11:55:06.279Z,22.82
2023-05-12T11:57:40.758Z,22.20
2023-05-12T12:00:17.361Z,22.46
2023-05-12T12:02:50.537Z,22.10
2023-05-12T12:05:23.005Z,22.79
2023-05-12T12:08:05.417Z,22.83
2023-05-12T12:10:40.240Z,22.47
2023-05-12T12:13:12.555Z,22.50
2023-05-12T12:15:44.765Z,22.54
2023-05-12T12:18:17.709Z,22.42
2023-05-12T12:20:50.385Z,22.47
2023-05-12T12:23:22.622Z,22.41
2023-05-12T12:25:54.986Z,22.42
2023-05-12T12:28:27.161Z,22.66
2023-05-12T12:31:00.095Z,23.16
2023-05-12T12:33:32.498Z,22.88
2023-05-12T12:36:05.107Z,23.05
2023-05-12T12:38:40.257Z,22.94
2023-05-12T12:41:12.814Z,22.10
2023-05-12T12:43:45.816Z,22.22
2023-05-12T12:46:18.292Z,22.30
2023-05-12T12:48:50.679Z,22.86
2023-05-12T12:51:24.328Z,22.65
2023-05-12T12:53:56.834Z,22.46
2023-05-12T12:56:29.163Z,22.79
2023-05-12T12:59:01.904Z,22.54
2023-05-12T13:01:38.899Z,22.27
2023-05-12T13:04:11.301Z,22.94
2023-05-12T13:06:43.512Z,22.25
2023-05-12T13:09:18.125Z,22.92
2023-05-12T13:11:52.043Z,22.91
2023-05-12T13:14:24.526Z,22.95
2023-05-12T13:16:57.003Z,22.57
2023-05-12T13:19:31.773Z,22.55
2023-05-12T13:22:04.175Z,22.47
2023-05-12T13:24:37.228Z,22.75
2023-05-12T13:27:10.022Z,22.51
2023-05-12T13:29:42.463Z,22.70
2023-05-12T13:32:15.219Z,22.93
2023-05-12T13:34:47.628Z,22.97
2023-05-12T13:37:20.488Z,23.05
2023-05-12T13:39:52.714Z,23.01
2023-05-12T13:42:25.020Z,23.19
2023-05-12T13:44:57.708Z,22.86
2023-05-12T13:47:29.906Z,22.96
2023-05-12T13:50:02.303Z,22.93
2023-05-12T13:52:37.078Z,22.82
2023-05-12T13:55:14.630Z,22.69
2023-05-12T13:57:53.093Z,22.73
2023-05-12T14:00:27.371Z,23.37
2023-05-12T14:02:59.781Z,23.32
2023-05-12T14:05:32.657Z,23.17
2023-05-12T14:08:05.312Z,23.19
2023-05-12T14:10:38.010Z,23.32
2023-05-12T14:13:10.366Z,23.35
2023-05-12T14:15:49.162Z,22.83
2023-05-12T14:18:22.535Z,23.26
2023-05-12T14:20:54.928Z,23.34
2023-05-12T14:23:27.378Z,22.62
2023-05-12T14:25:59.645Z,22.66
2023-05-12T14:28:32.104Z,22.71
2023-05-12T14:31:04.630Z,22.79
2023-05-12T14:33:39.842Z,23.02
2023-05-12T14:36:14.442Z,23.38
2023-05-12T14:38:46.996Z,23.39
2023-05-12T14:41:19.278Z,23.29
2023-05-12T14:43:51.632Z,23.45
2023-05-12T14:46:25.201Z,23.53
2023-05-12T14:48:55.951Z,23.24
2023-05-12T14:51:28.202Z,23.52
2023-05-12T14:54:00.780Z,23.41
2023-05-12T14:56:35.728Z,23.87
2023-05-12T14:59:11.376Z,23.41
2023-05-12T15:01:44.353Z,23.91
2023-05-12T15:04:18.195Z,23.65
2023-05-12T15:06:50.768Z,24.19
2023-05-12T15:09:23.211Z,23.96
2023-05-12T15:11:55.507Z,23.95
2023-05-12T15:14:27.859Z,24.10
2023-05-12T15:17:00.177Z,24.46
2023-05-12T15:19:32.710Z,24.17
2023-05-12T15:22:05.037Z,24.71
2023-05-12T15:24:39.020Z,24.47
2023-05-12T15:27:11.428Z,24.63
2023-05-12T15:29:44.252Z,24.32
2023-05-12T15:32:16.490Z,24.35
2023-05-12T15:34:49.102Z,24.44
2023-05-12T15:37:21.476Z,24.58
2023-05-12T15:39:53.804Z,24.71
2023-05-12T15:42:30.099Z,24.72
2023-05-12T15:45:12.200Z,24.72
2023-05-12T15:47:47.292Z,24.95
2023-05-12T15:50:23.219Z,25.45
2023-05-12T15:52:55.887Z,24.78
2023-05-12T15:55:28.260Z,25.05
2023-05-12T15:58:01.401Z,25.35
2023-05-12T16:00:34.038Z,25.23
2023-05-12T16:03:07.271Z,25.24
2023-05-12T16:05:42.064Z,25.57
2023-05-12T16:08:14.427Z,25.57
2023-05-12T16:10:47.150Z,25.51
2023-05-12T16:13:19.431Z,25.77
2023-05-12T16:15:53.690Z,25.69
2023-05-12T16:18:26.694Z,25.86
2023-05-12T16:20:59.472Z,25.41
2023-05-12T16:23:32.048Z,25.94
2023-05-12T16:26:05.639Z,25.91
2023-05-12T16:28:40.732Z,26.21
2023-05-12T16:31:18.163Z,26.30
2023-05-12T16:33:50.814Z,26.16
2023-05-12T16:36:24.416Z,26.26
2023-05-12T16:38:56.926Z,26.20
2023-05-12T16:41:29.341Z,26.55
2023-05-12T16:44:02.015Z,26.60
2023-05-12T16:46:40.803Z,26.77
2023-05-12T16:49:14.593Z,26.22
2023-05-12T16:51:47.581Z,26.64
2023-05-12T16:54:20.088Z,26.38
2023-05-12T16:56:53.259Z,26.46
2023-05-12T16:59:25.760Z,26.62
2023-05-12T17:01:58.420Z,26.49
2023-05-12T17:04:30.960Z,26.75
2023-05-12T17:07:06.106Z,26.95
2023-05-12T17:09:40.172Z,27.05
2023-05-12T17:12:14.367Z,26.97
2023-05-12T17:14:59.364Z,27.26
2023-05-12T17:17:39.648Z,26.85
2023-05-12T17:20:14.010Z,26.95
2023-05-12T17:22:50.555Z,26.98
2023-05-12T17:25:23.522Z,27.62
2023-05-12T17:27:56.259Z,27.64
2023-05-12T17:30:28.996Z,27.69
2023-05-12T17:33:01.916Z,27.29
2023-05-12T17:35:37.351Z,27.72
2023-05-12T17:38:09.836Z,27.53
2023-05-12T17:40:43.341Z,27.89
2023-05-12T17:43:16.190Z,27.64
2023-05-12T17:45:48.914Z,27.82
2023-05-12T17:48:21.240Z,27.82
2023-05-12T17:50:54.400Z,28.20
2023-05-12T17:53:26.965Z,28.52
2023-05-12T17:55:59.671Z,28.60
2023-05-12T17:58:32.329Z,28.35
2023-05-12T18:01:07.665Z,29.02
2023-05-12T18:03:40.886Z,28.76
2023-05-12T18:06:16.096Z,29.57
2023-05-12T18:08:48.563Z,29.43
2023-05-12T18:11:21.175Z,29.33
2023-05-12T18:13:54.088Z,29.86
2023-05-12T18:16:29.333Z,30.49
2023-05-12T18:19:02.851Z,30.29
2023-05-12T18:21:37.267Z,30.50
2023-05-12T18:24:10.880Z,30.72
2023-05-12T18:26:43.424Z,30.89
2023-05-12T18:29:17.509Z,31.05
2023-05-12T18:31:50.151Z,31.98
2023-05-12T18:34:23.056Z,31.94
2023-05-12T18:36:56.106Z,32.65
2023-05-12T18:39:29.049Z,32.79
2023-05-12T18:42:01.464Z,32.63
2023-05-12T18:44:34.228Z,33.50
2023-05-12T18:47:09.363Z,34.23
2023-05-12T18:49:42.431Z,33.72
2023-05-12T18:52:14.778Z,33.99
2023-05-12T18:54:49.410Z,34.98
2023-05-12T18:57:22.689Z,35.29
2023-05-12T18:59:55.285Z,35.55
2023-05-12T19:02:27.783Z,35.57
2023-05-12T19:05:03.678Z,36.06
2023-05-12T19:07:39.458Z,35.56
2023-05-12T19:10:12.588Z,35.93
2023-05-12T19:12:44.821Z,35.77
2023-05-12T19:15:17.935Z,36.14
2023-05-12T19:17:50.691Z,36.57
2023-05-12T19:20:23.223Z,36.64
2023-05-12T19:22:55.560Z,36.80
2023-05-12T19:25:27.869Z,36.56
2023-05-12T19:28:00.414Z,37.26
2023-05-12T19:30:33.675Z,37.60
2023-05-12T19:33:08.712Z,37.78
2023-05-12T19:35:41.986Z,38.35
2023-05-12T19:38:14.303Z,38.59
2023-05-12T19:40:46.756Z,38.37
2023-05-12T19:43:19.153Z,38.63
2023-05-12T19:46:00.067Z,39.02
2023-05-12T19:48:42.263Z,39.38
2023-05-12T19:51:14.921Z,39.17
2023-05-12T19:53:47.289Z,39.89
2023-05-12T19:56:20.908Z,40.21
2023-05-12T19:58:56.513Z,40.49
2023-05-12T20:01:29.585Z,39.88
2023-05-12T20:04:03.305Z,40.84
2023-05-12T20:06:36.266Z,40.73
2023-05-12T20:09:08.648Z,40.60
2023-05-12T20:11:44.911Z,41.02
2023-05-12T20:14:17.277Z,40.94
2023-05-12T20:16:49.676Z,41.39
2023-05-12T20:19:22.096Z,41.80
2023-05-12T20:21:54.318Z,41.63
2023-05-12T20:24:26.915Z,42.26
2023-05-12T20:26:59.364Z,42.12
2023-05-12T20:29:32.059Z,42.52
2023-05-12T20:32:04.562Z,42.49
2023-05-12T20:34:39.723Z,42.52
2023-05-12T20:37:12.087Z,43.05
2023-05-12T20:39:44.411Z,43.06
2023-05-12T20:42:16.904Z,43.08
2023-05-12T20:44:49.189Z,43.27
2023-05-12T20:47:21.668Z,43.48
2023-05-12T20:49:58.877Z,43.74
2023-05-12T20:52:31.384Z,43.94
2023-05-12T20:55:07.260Z,43.67
2023-05-12T20:57:42.101Z,44.27
2023-05-12T21:00:17.388Z,44.22
2023-05-12T21:02:52.494Z,44.53
2023-05-12T21:05:25.828Z,44.33
2023-05-12T21:07:58.074Z,44.70
2023-05-12T21:10:32.304Z,44.94
2023-05-12T21:13:02.866Z,45.19
2023-05-12T21:15:35.273Z,45.23
2023-05-12T21:18:09.164Z,45.42
2023-05-12T21:20:43.422Z,45.50
2023-05-12T21:23:15.286Z,45.74
2023-05-12T21:25:50.272Z,45.57
2023-05-12T21:28:23.014Z,45.83
2023-05-12T21:30:55.474Z,45.81
2023-05-12T21:33:28.090Z,46.05
2023-05-12T21:36:01.526Z,46.09
2023-05-12T21:38:35.262Z,46.17
2023-05-12T21:41:08.558Z,46.23
2023-05-12T21:43:40.833Z,46.68
2023-05-12T21:46:13.119Z,46.61
2023-05-12T21:48:46.242Z,46.69
2023-05-12T21:51:19.222Z,46.94
2023-05-12T21:53:51.551Z,47.06
2023-05-12T21:56:24.640Z,46.91
2023-05-12T21:58:57.215Z,47.15
2023-05-12T22:01:30.123Z,47.18
2023-05-12T22:04:23.785Z,47.39
2023-05-12T22:06:56.718Z,47.54
2023-05-12T22:09:31.118Z,47.47
2023-05-12T22:12:03.756Z,47.39
2023-05-12T22:14:37.677Z,47.39
2023-05-12T22:17:10.214Z,47.68
2023-05-12T22:19:42.625Z,47.77
2023-05-12T22:22:15.080Z,47.55
2023-05-12T22:24:48.345Z,47.92
2023-05-12T22:27:22.788Z,47.77
2023-05-12T22:29:56.999Z,47.83
2023-05-12T22:32:27.728Z,47.94
2023-05-12T22:35:00.674Z,48.08
2023-05-12T22:37:39.301Z,48.15
2023-05-12T22:40:14.257Z,47.85
2023-05-12T22:42:46.883Z,48.04
2023-05-12T22:45:19.425Z,48.27
2023-05-12T22:47:52.754Z,48.23
2023-05-12T22:50:25.971Z,48.35
2023-05-12T22:52:58.471Z,48.56
2023-05-12T22:55:31.722Z,48.99
2023-05-12T22:58:04.072Z,48.67
2023-05-12T23:00:38.129Z,48.80
2023-05-12T23:03:10.585Z,48.96
2023-05-12T23:05:44.461Z,49.09
2023-05-12T23:08:17.138Z,49.29
2023-05-12T23:10:49.261Z,49.76
2023-05-12T23:13:21.564Z,49.73
2023-05-12T23:15:55.821Z,49.94
2023-05-12T23:18:31.322Z,49.89
2023-05-12T23:21:03.665Z,50.33
2023-05-12T23:23:40.220Z,50.33
2023-05-12T23:26:14.122Z,50.34
2023-05-12T23:28:46.400Z,50.04
2023-05-12T23:31:18.681Z,50.49
2023-05-12T23:33:51.133Z,50.34
2023-05-12T23:36:23.533Z,50.69
2023-05-12T23:38:56.642Z,50.54
2023-05-12T23:41:31.793Z,50.77
2023-05-12T23:44:04.053Z,50.79
2023-05-12T23:46:36.706Z,50.41
2023-05-12T23:49:09.581Z,50.60
2023-05-12T23:51:44.591Z,50.86
2023-05-12T23:54:16.925Z,50.85
2023-05-12T23:56:50.729Z,50.68
2023-05-12T23:59:23.015Z,50.80
